Time;durP1;ratioP1;P1;durP2;ratioP2;P2;SDS_P1;SDS_P2;PMS_P1;PMS_P2;Temp;Humidity;BMP_temperature;BMP_pressure;BME280_temperature;BME280_humidity;BME280_pressure;Samples;Min_cycle;Max_cycle;Signal;HPM_P1;HPM_P2
2022/01/11 00:00:07;;;;;;;32.40;21.20;;;;;;;-1.74;88.14;100198.18;105149;1271;61137;-71
2022/01/11 00:02:55;;;;;;;31.90;21.30;;;;;;;-1.76;87.91;100201.83;102141;1271;1004077;-73
2022/01/11 00:05:34;;;;;;;26.00;18.30;;;;;;;-1.77;87.67;100203.23;105269;1271;69039;-71
2022/01/11 00:08:02;;;;;;;24.90;16.60;;;;;;;-1.77;87.61;100211.23;105222;1271;73209;-72
2022/01/11 00:10:52;;;;;;;27.60;18.00;;;;;;;-1.78;87.44;100209.15;105232;1271;61328;-72
2022/01/11 00:13:20;;;;;;;26.70;18.20;;;;;;;-1.77;87.39;100213.67;105215;1271;61175;-74
2022/01/11 00:15:47;;;;;;;28.00;18.70;;;;;;;-1.77;87.17;100213.85;105172;1271;75006;-74
2022/01/11 00:18:15;;;;;;;28.70;17.80;;;;;;;-1.79;87.17;100217.00;105127;1271;70795;-74
2022/01/11 00:20:42;;;;;;;27.50;17.70;;;;;;;-1.79;86.80;100220.11;104814;1274;74465;-75
2022/01/11 00:25:41;;;;;;;27.70;18.70;;;;;;;-1.82;86.69;100226.90;105206;1271;61837;-72
2022/01/11 00:28:09;;;;;;;28.60;20.60;;;;;;;-1.85;86.67;100227.08;105211;1271;76283;-73
2022/01/11 00:30:41;;;;;;;25.90;18.30;;;;;;;-1.85;86.45;100230.38;105235;1271;69312;-73
2022/01/11 00:33:13;;;;;;;27.60;19.20;;;;;;;-1.88;86.38;100235.26;104951;1271;74375;-72
2022/01/11 00:35:41;;;;;;;28.20;18.40;;;;;;;-1.90;86.52;100235.60;105188;1272;61295;-74
2022/01/11 00:38:09;;;;;;;24.60;17.10;;;;;;;-1.90;85.59;100242.20;105230;1271;61399;-73
2022/01/11 00:40:37;;;;;;;26.00;17.40;;;;;;;-1.96;85.47;100242.36;105271;1271;75516;-72
2022/01/11 00:43:05;;;;;;;28.10;17.80;;;;;;;-1.98;85.41;100238.87;105357;1271;69459;-71
2022/01/11 00:45:32;;;;;;;23.80;16.90;;;;;;;-2.00;85.71;100240.27;104927;1272;74383;-71
2022/01/11 00:47:58;;;;;;;24.90;17.00;;;;;;;-2.00;85.64;100243.05;105183;1271;61422;-71
2022/01/11 00:50:25;;;;;;;23.00;16.80;;;;;;;-2.01;85.50;100241.47;105131;1271;61234;-73
2022/01/11 00:52:52;;;;;;;25.50;15.80;;;;;;;-2.02;85.40;100240.60;105195;1271;75358;-73
2022/01/11 00:55:19;;;;;;;25.40;16.60;;;;;;;-2.03;85.13;100239.88;105247;1271;70442;-73
2022/01/11 00:57:45;;;;;;;28.60;17.70;;;;;;;-2.04;85.29;100241.11;105214;1271;73169;-72
2022/01/11 01:00:13;;;;;;;27.30;18.20;;;;;;;-2.04;84.95;100242.85;105140;1271;61285;-73
2022/01/11 01:02:41;;;;;;;24.10;16.40;;;;;;;-2.05;84.96;100243.38;105100;1274;62484;-72
2022/01/11 01:05:09;;;;;;;25.20;17.80;;;;;;;-2.06;84.85;100249.64;105186;1271;73560;-73
2022/01/11 01:07:36;;;;;;;26.80;18.20;;;;;;;-2.07;84.66;100251.20;105270;1271;68606;-72
2022/01/11 01:10:15;;;;;;;26.50;17.40;;;;;;;-2.08;84.93;100247.88;105091;1271;157058;-72
2022/01/11 01:12:42;;;;;;;26.90;18.30;;;;;;;-2.09;84.92;100249.45;105336;1271;61403;-72
2022/01/11 01:15:09;;;;;;;27.70;18.90;;;;;;;-2.10;84.84;100245.45;105004;1271;61358;-74
2022/01/11 01:17:35;;;;;;;25.40;16.80;;;;;;;-2.09;84.97;100248.05;105192;1271;75325;-73
2022/01/11 01:20:04;;;;;;;26.40;18.00;;;;;;;-2.07;84.91;100248.94;105336;1271;69401;-73
2022/01/11 01:22:31;;;;;;;24.60;17.10;;;;;;;-2.07;84.89;100251.71;105622;1271;72882;-72
2022/01/11 01:24:57;;;;;;;25.00;17.10;;;;;;;-2.05;84.63;100251.73;105490;1271;61387;-73
2022/01/11 01:27:24;;;;;;;20.30;14.90;;;;;;;-2.05;84.57;100251.04;105481;1271;61142;-72
2022/01/11 01:29:51;;;;;;;21.10;15.00;;;;;;;-2.05;84.34;100254.17;105331;1271;74562;-72
2022/01/11 01:32:17;;;;;;;22.80;15.40;;;;;;;-2.05;84.05;100252.79;105191;1271;69238;-73
2022/01/11 01:34:44;;;;;;;24.10;16.20;;;;;;;-2.06;83.98;100253.11;105215;1271;74165;-73
2022/01/11 01:37:10;;;;;;;25.10;18.30;;;;;;;-2.06;84.13;100253.12;105213;1271;61388;-74
2022/01/11 01:39:37;;;;;;;27.30;16.40;;;;;;;-2.06;84.08;100260.42;105279;1271;61224;-73
2022/01/11 01:42:05;;;;;;;23.70;16.20;;;;;;;-2.07;84.09;100257.13;105192;1271;75507;-74
2022/01/11 01:44:33;;;;;;;19.20;14.60;;;;;;;-2.08;83.69;100260.60;104986;1271;69286;-73
2022/01/11 01:47:00;;;;;;;21.80;14.50;;;;;;;-2.09;83.75;100262.51;104660;1271;1002979;-73
2022/01/11 01:49:28;;;;;;;21.30;13.60;;;;;;;-2.10;83.80;100260.94;105241;1271;61130;-73
2022/01/11 01:51:55;;;;;;;20.60;12.80;;;;;;;-2.10;83.60;100261.11;104916;1271;61764;-74
2022/01/11 01:54:23;;;;;;;20.70;14.60;;;;;;;-2.10;83.61;100261.11;104933;1271;76418;-71
2022/01/11 01:56:49;;;;;;;22.30;15.30;;;;;;;-2.10;83.91;100265.29;104894;1271;66523;-72
2022/01/11 01:59:16;;;;;;;23.60;13.70;;;;;;;-2.08;83.77;100265.47;105180;1271;73234;-73
2022/01/11 02:01:48;;;;;;;21.80;14.20;;;;;;;-2.09;83.51;100268.95;105231;1271;61308;-73
2022/01/11 02:04:19;;;;;;;19.40;13.20;;;;;;;-2.09;83.64;100269.12;105393;1271;61756;-72
2022/01/11 02:06:46;;;;;;;22.00;13.30;;;;;;;-2.09;83.59;100271.90;105204;1271;76305;-74
2022/01/11 02:09:17;;;;;;;21.40;14.20;;;;;;;-2.08;83.31;100274.35;105249;1271;70318;-73
2022/01/11 02:11:46;;;;;;;21.60;15.30;;;;;;;-2.09;83.29;100276.61;105152;1271;74042;-71
2022/01/11 02:14:13;;;;;;;23.20;14.80;;;;;;;-2.10;83.36;100277.83;105109;1271;61195;-71
2022/01/11 02:16:39;;;;;;;27.00;16.10;;;;;;;-2.09;83.32;100278.86;105141;1271;61128;-70
2022/01/11 02:19:06;;;;;;;24.70;16.50;;;;;;;-2.09;83.38;100274.68;105200;1271;76446;-71
2022/01/11 02:21:33;;;;;;;23.80;15.80;;;;;;;-2.10;83.47;100269.30;105201;1271;68781;-72
2022/01/11 02:24:00;;;;;;;24.50;16.60;;;;;;;-2.10;83.47;100274.34;105120;1271;74482;-72
2022/01/11 02:26:27;;;;;;;23.80;15.70;;;;;;;-2.10;83.45;100273.13;105156;1271;61910;-76
2022/01/11 02:28:54;;;;;;;23.90;16.80;;;;;;;-2.10;83.07;100275.39;105237;1271;61948;-73
2022/01/11 02:31:21;;;;;;;24.60;15.20;;;;;;;-2.10;83.23;100276.79;105696;1271;74698;-72
2022/01/11 02:33:54;;;;;;;26.10;17.40;;;;;;;-2.10;83.04;100279.23;105789;1271;69237;-73
2022/01/11 02:36:24;;;;;;;26.70;17.30;;;;;;;-2.09;83.14;100284.44;105394;1271;73208;-73
2022/01/11 02:38:55;;;;;;;;;;;;;;;-2.08;83.12;100285.85;105245;1271;61279;-73
2022/01/11 02:41:24;;;;;;;23.50;15.50;;;;;;;-2.08;83.12;100282.37;104945;1271;61978;-72
2022/01/11 02:43:51;;;;;;;24.90;17.80;;;;;;;-2.08;83.01;100286.54;105188;1271;76136;-73
2022/01/11 02:46:21;;;;;;;25.70;16.90;;;;;;;-2.09;83.00;100289.67;105167;1271;70333;-73
2022/01/11 02:48:49;;;;;;;22.40;16.30;;;;;;;-2.09;83.05;100291.41;104915;1274;74381;-72
2022/01/11 02:51:17;;;;;;;24.10;14.50;;;;;;;-2.11;82.91;100288.44;105191;1271;61380;-73
2022/01/11 02:53:46;;;;;;;24.50;16.50;;;;;;;-2.13;82.43;100291.39;105104;1271;61952;-73
2022/01/11 02:56:14;;;;;;;26.60;16.60;;;;;;;-2.17;82.73;100293.10;105117;1271;76116;-72
2022/01/11 02:58:41;;;;;;;24.60;15.90;;;;;;;-2.17;82.93;100295.71;105144;1271;68607;-73
2022/01/11 03:01:09;;;;;;;23.80;16.90;;;;;;;-2.16;82.96;100292.05;105112;1271;72587;-73
2022/01/11 03:03:36;;;;;;;21.90;15.30;;;;;;;-2.16;83.03;100295.54;105208;1271;61314;-73
2022/01/11 03:06:05;;;;;;;26.90;17.70;;;;;;;-2.17;83.12;100294.32;105209;1271;61381;-72
2022/01/11 03:08:35;;;;;;;25.70;17.10;;;;;;;-2.17;83.32;100295.02;105343;1271;75114;-75
2022/01/11 03:11:02;;;;;;;24.90;16.70;;;;;;;-2.20;83.27;100305.10;105136;1271;69333;-73
2022/01/11 03:13:29;;;;;;;24.50;16.30;;;;;;;-2.24;83.62;100305.95;105082;1271;74497;-74
2022/01/11 03:15:55;;;;;;;28.40;18.10;;;;;;;-2.26;83.68;100303.15;105096;1271;61307;-74
2022/01/11 03:18:22;;;;;;;25.30;18.60;;;;;;;-2.28;83.77;100304.01;105230;1270;61271;-73
2022/01/11 03:20:52;;;;;;;23.40;16.60;;;;;;;-2.29;84.01;100306.62;104922;1271;74813;-72
2022/01/11 03:23:19;;;;;;;25.70;18.00;;;;;;;-2.31;83.98;100306.60;105258;1271;70426;-75
2022/01/11 03:25:47;;;;;;;27.40;16.60;;;;;;;-2.33;84.08;100312.33;105152;1271;73294;-74
2022/01/11 03:28:14;;;;;;;24.50;16.10;;;;;;;-2.36;84.16;100310.23;105177;1271;61360;-74
2022/01/11 03:30:40;;;;;;;25.80;15.90;;;;;;;-2.40;84.24;100314.20;105141;1271;61918;-72
2022/01/11 03:33:08;;;;;;;23.80;15.80;;;;;;;-2.43;84.29;100312.61;105162;1271;61143;-72
2022/01/11 03:35:39;;;;;;;22.00;15.40;;;;;;;-2.44;84.26;100318.52;105175;1271;68436;-74
2022/01/11 03:38:07;;;;;;;23.60;15.10;;;;;;;-2.46;84.30;100321.65;105261;1271;73007;-73
2022/01/11 03:40:35;;;;;;;22.10;15.50;;;;;;;-2.47;84.36;100322.51;105019;1271;61416;-73
2022/01/11 03:43:02;;;;;;;25.50;16.80;;;;;;;-2.49;84.42;100327.02;105305;1270;61742;-73
2022/01/11 03:45:29;;;;;;;24.40;16.00;;;;;;;-2.48;84.54;100327.89;105177;1271;76150;-73
2022/01/11 03:47:58;;;;;;;22.70;16.00;;;;;;;-2.48;84.55;100326.49;104926;1274;69377;-73
2022/01/11 03:50:26;;;;;;;26.20;15.90;;;;;;;-2.48;84.52;100329.27;105192;1271;73254;-73
2022/01/11 03:52:59;;;;;;;25.70;16.00;;;;;;;-2.49;84.48;100331.71;105198;1271;62684;-73
2022/01/11 03:55:58;;;;;;;22.60;15.50;;;;;;;-2.49;84.48;100333.10;105200;1271;61329;-73
2022/01/11 03:58:26;;;;;;;21.10;14.90;;;;;;;-2.49;84.51;100335.20;105182;1271;75464;-73
2022/01/11 04:00:54;;;;;;;23.00;16.00;;;;;;;-2.49;84.39;100339.72;105196;1271;69446;-74
2022/01/11 04:03:22;;;;;;;21.10;14.20;;;;;;;-2.50;83.97;100340.41;105144;1271;73207;-75
2022/01/11 04:05:49;;;;;;;23.10;13.50;;;;;;;-2.53;83.79;100338.99;105307;1271;61278;-73
2022/01/11 04:08:15;;;;;;;21.00;13.50;;;;;;;-2.55;84.00;100344.38;105170;1271;61367;-73
2022/01/11 04:10:42;;;;;;;22.60;13.80;;;;;;;-2.55;83.86;100349.95;105184;1271;75294;-72
2022/01/11 04:13:09;;;;;;;26.80;15.20;;;;;;;-2.56;83.90;100349.41;102259;1271;1003897;-73
2022/01/11 04:15:35;;;;;;;19.80;13.00;;;;;;;-2.56;83.98;100355.32;105176;1271;61361;-74
2022/01/11 04:18:02;;;;;;;25.50;14.70;;;;;;;-2.57;84.04;100355.48;105159;1271;61343;-72
2022/01/11 04:20:29;;;;;;;24.20;13.10;;;;;;;-2.58;83.78;100353.90;105170;1271;61296;-73
2022/01/11 04:22:56;;;;;;;27.50;14.20;;;;;;;-2.60;83.79;100361.20;104912;1271;61151;-73
2022/01/11 04:25:22;;;;;;;30.60;14.80;;;;;;;-2.60;83.81;100362.42;104994;1271;61265;-73
2022/01/11 04:27:49;;;;;;;23.10;14.10;;;;;;;-2.60;83.87;100363.30;105151;1271;61381;-72
2022/01/11 04:30:16;;;;;;;19.70;13.00;;;;;;;-2.61;83.51;100367.28;105175;1271;61299;-72
2022/01/11 04:32:43;;;;;;;20.50;11.90;;;;;;;-2.62;83.58;100365.89;105184;1271;61983;-72
2022/01/11 04:35:12;;;;;;;18.80;11.70;;;;;;;-2.62;83.31;100364.84;105145;1271;61284;-73
2022/01/11 04:37:39;;;;;;;23.80;12.00;;;;;;;-2.62;83.31;100370.76;105179;1269;70144;-73
2022/01/11 04:40:06;;;;;;;19.00;11.40;;;;;;;-2.64;83.25;100372.48;105192;1271;72846;-71
2022/01/11 04:42:33;;;;;;;17.50;11.70;;;;;;;-2.66;83.32;100377.16;104883;1271;61387;-71
2022/01/11 04:44:59;;;;;;;20.30;12.90;;;;;;;-2.67;83.65;100380.29;105114;1270;61173;-70
2022/01/11 04:47:26;;;;;;;21.00;13.90;;;;;;;-2.69;83.60;100381.83;105164;1271;76381;-73
2022/01/11 04:49:52;;;;;;;20.40;12.60;;;;;;;-2.72;83.63;100381.29;105098;1271;61307;-72
2022/01/11 04:52:19;;;;;;;20.80;11.30;;;;;;;-2.73;83.72;100383.36;105201;1269;61275;-73
2022/01/11 04:54:45;;;;;;;20.70;13.60;;;;;;;-2.75;83.64;100384.90;105055;1271;61330;-77
2022/01/11 04:57:12;;;;;;;19.50;12.70;;;;;;;-2.75;83.84;100389.27;103712;1271;1003536;-72
2022/01/11 04:59:38;;;;;;;20.90;13.40;;;;;;;-2.74;83.98;100389.27;105230;1271;61426;-74
2022/01/11 05:02:05;;;;;;;22.10;13.00;;;;;;;-2.73;83.96;100391.02;105224;1271;69250;-73
2022/01/11 05:04:32;;;;;;;19.70;12.10;;;;;;;-2.73;83.96;100396.23;105008;1271;73772;-73
2022/01/11 05:06:59;;;;;;;18.50;11.90;;;;;;;-2.73;84.06;100394.66;105151;1271;61281;-72
2022/01/11 05:09:25;;;;;;;19.80;12.30;;;;;;;-2.75;84.05;100397.95;105171;1270;61977;-73
2022/01/11 05:11:52;;;;;;;18.60;12.00;;;;;;;-2.76;84.17;100400.89;105184;1271;76220;-73
2022/01/11 05:14:18;;;;;;;17.20;10.60;;;;;;;-2.78;83.94;100400.88;104994;1271;70692;-73
2022/01/11 05:16:45;;;;;;;18.50;12.00;;;;;;;-2.82;82.89;100401.70;105206;1271;61296;-72
2022/01/11 05:19:12;;;;;;;18.40;11.30;;;;;;;-2.86;82.93;100407.40;105210;1271;61402;-72
2022/01/11 05:21:43;;;;;;;17.10;10.10;;;;;;;-2.91;82.42;100404.92;105118;1271;61354;-73
2022/01/11 05:24:10;;;;;;;15.40;10.20;;;;;;;-2.96;82.36;100412.01;105184;1271;76355;-73
2022/01/11 05:26:38;;;;;;;14.40;11.00;;;;;;;-3.01;82.49;100410.21;105491;1271;70267;-74
2022/01/11 05:29:04;;;;;;;17.10;10.80;;;;;;;-3.04;82.54;100413.81;105254;1271;73193;-71
2022/01/11 05:31:34;;;;;;;22.00;11.30;;;;;;;-3.06;82.53;100421.10;105222;1271;61410;-72
2022/01/11 05:34:02;;;;;;;14.80;10.20;;;;;;;-3.07;82.39;100432.73;105232;1271;61434;-73
2022/01/11 05:36:29;;;;;;;16.10;10.40;;;;;;;-3.08;82.32;100430.83;105157;1271;75191;-73
2022/01/11 05:38:56;;;;;;;12.60;9.70;;;;;;;-3.09;82.32;100436.19;105188;1270;70909;-72
2022/01/11 05:41:23;;;;;;;15.70;10.00;;;;;;;-3.11;82.30;100436.88;105000;1271;74125;-73
2022/01/11 05:43:49;;;;;;;18.90;10.30;;;;;;;-3.14;82.38;100440.32;104913;1271;61377;-75
2022/01/11 05:46:16;;;;;;;16.30;10.10;;;;;;;-3.15;82.42;100441.17;105169;1271;61250;-74
2022/01/11 05:48:45;;;;;;;15.40;10.50;;;;;;;-3.18;82.17;100442.52;105373;1271;76351;-73
2022/01/11 05:51:12;;;;;;;18.70;11.30;;;;;;;-3.20;82.26;100438.85;105227;1270;70667;-72
2022/01/11 05:53:39;;;;;;;14.90;10.80;;;;;;;-3.22;82.37;100443.34;105242;1270;73180;-73
2022/01/11 05:56:05;;;;;;;14.30;9.50;;;;;;;-3.25;82.26;100442.27;105120;1271;61253;-72
2022/01/11 05:58:32;;;;;;;17.60;12.50;;;;;;;-3.29;82.29;100442.05;105212;1271;61287;-73
2022/01/11 06:00:59;;;;;;;19.70;12.80;;;;;;;-3.32;82.31;100448.61;105170;1269;75701;-74
2022/01/11 06:03:26;;;;;;;18.20;11.40;;;;;;;-3.34;82.41;100452.06;105183;1271;69169;-74
2022/01/11 06:05:53;;;;;;;18.70;12.90;;;;;;;-3.38;82.50;100456.17;105542;1271;74154;-73
2022/01/11 06:08:20;;;;;;;16.70;12.40;;;;;;;-3.42;82.55;100458.04;105172;1271;61397;-73
2022/01/11 06:10:48;;;;;;;18.00;12.10;;;;;;;-3.46;82.57;100459.90;105194;1271;61378;-74
2022/01/11 06:13:14;;;;;;;16.80;11.50;;;;;;;-3.50;82.64;100463.83;105205;1271;75973;-73
2022/01/11 06:15:41;;;;;;;16.30;10.30;;;;;;;-3.54;82.76;100472.14;105235;1271;70205;-74
2022/01/11 06:18:07;;;;;;;17.00;11.90;;;;;;;-3.58;82.76;100475.20;105209;1271;74382;-73
2022/01/11 06:20:34;;;;;;;14.90;9.90;;;;;;;-3.61;82.88;100477.05;105161;1271;61405;-73
2022/01/11 06:23:01;;;;;;;24.40;11.40;;;;;;;-3.62;82.96;100482.26;105200;1271;61250;-72
2022/01/11 06:25:27;;;;;;;15.20;10.30;;;;;;;-3.63;82.98;100486.94;105180;1271;75296;-72
2022/01/11 06:27:54;;;;;;;17.10;10.50;;;;;;;-3.62;83.14;100490.42;105216;1271;69233;-72
2022/01/11 06:30:21;;;;;;;17.90;11.40;;;;;;;-3.60;83.06;100494.27;105238;1271;61332;-73
2022/01/11 06:32:47;;;;;;;18.60;11.30;;;;;;;-3.57;83.10;100493.98;105185;1271;61175;-72
2022/01/11 06:35:16;;;;;;;20.90;10.20;;;;;;;-3.52;83.23;100501.33;105230;1271;61197;-72
2022/01/11 06:37:44;;;;;;;15.70;10.50;;;;;;;-3.49;83.25;100507.11;105206;1271;74846;-72
2022/01/11 06:40:12;;;;;;;20.60;12.30;;;;;;;-3.44;83.33;100511.87;104910;1271;68682;-72
2022/01/11 06:42:39;;;;;;;19.00;11.90;;;;;;;-3.41;83.42;100512.42;105005;1271;73421;-74
2022/01/11 06:45:06;;;;;;;17.80;11.40;;;;;;;-3.36;83.39;100515.81;104903;1271;61321;-73
2022/01/11 06:47:32;;;;;;;19.20;11.30;;;;;;;-3.31;83.49;100514.83;104932;1271;62999;-72
2022/01/11 06:49:59;;;;;;;14.40;9.80;;;;;;;-3.26;83.53;100522.20;105215;1271;61351;-72
2022/01/11 06:52:26;;;;;;;16.60;10.60;;;;;;;-3.20;83.69;100525.93;105196;1270;68860;-73
2022/01/11 06:54:52;;;;;;;15.90;10.90;;;;;;;-3.14;83.73;100526.01;105220;1271;72974;-73
2022/01/11 06:57:19;;;;;;;16.50;10.70;;;;;;;-3.09;83.78;100526.77;105196;1271;61303;-74
2022/01/11 06:59:45;;;;;;;16.40;10.40;;;;;;;-3.04;83.81;100527.88;105175;1271;61273;-75
2022/01/11 07:02:12;;;;;;;13.40;9.40;;;;;;;-3.00;83.79;100529.15;105196;1271;61285;-72
2022/01/11 07:04:39;;;;;;;14.60;10.10;;;;;;;-2.96;83.79;100533.20;105202;1271;68525;-74
2022/01/11 07:07:07;;;;;;;17.50;10.60;;;;;;;-2.92;83.94;100534.29;105107;1271;73243;-73
2022/01/11 07:09:35;;;;;;;17.30;10.20;;;;;;;-2.88;83.96;100535.91;105173;1271;61358;-73
2022/01/11 07:12:03;;;;;;;12.60;10.10;;;;;;;-2.84;83.93;100539.08;105240;1271;61308;-74
2022/01/11 07:14:30;;;;;;;14.10;9.40;;;;;;;-2.81;83.89;100544.33;105167;1271;76221;-74
2022/01/11 07:16:56;;;;;;;13.70;9.90;;;;;;;-2.79;83.83;100545.39;105204;1271;67326;-73
2022/01/11 07:19:24;;;;;;;17.40;9.70;;;;;;;-2.76;83.97;100549.44;105251;1271;73330;-72
2022/01/11 07:21:50;;;;;;;14.20;9.70;;;;;;;-2.74;83.94;100552.60;105143;1271;61343;-74
2022/01/11 07:24:18;;;;;;;15.70;10.60;;;;;;;-2.71;83.96;100556.80;105242;1270;61339;-74
2022/01/11 07:26:44;;;;;;;13.30;9.40;;;;;;;-2.68;83.89;100561.36;105399;1271;75380;-74
2022/01/11 07:29:11;;;;;;;16.20;11.10;;;;;;;-2.65;84.02;100561.75;105708;1271;68158;-74
2022/01/11 07:31:38;;;;;;;14.40;11.00;;;;;;;-2.60;84.13;100563.02;105857;1271;74223;-74
2022/01/11 07:34:06;;;;;;;20.60;11.40;;;;;;;-2.56;84.22;100567.05;105363;1271;61307;-74
2022/01/11 07:36:33;;;;;;;18.70;11.40;;;;;;;-2.52;84.18;100569.20;105223;1271;61285;-73
2022/01/11 07:39:00;;;;;;;18.20;13.10;;;;;;;-2.49;84.09;100575.67;105253;1271;76214;-73
2022/01/11 07:41:27;;;;;;;14.30;11.20;;;;;;;-2.45;84.02;100577.64;105266;1271;69406;-74
2022/01/11 07:43:53;;;;;;;14.90;9.70;;;;;;;-2.42;84.01;100580.45;105208;1271;74810;-74
2022/01/11 07:46:20;;;;;;;14.30;10.90;;;;;;;-2.41;83.97;100580.99;105200;1271;61255;-73
2022/01/11 07:48:47;;;;;;;15.00;9.80;;;;;;;-2.38;83.87;100585.02;105193;1271;61464;-75
2022/01/11 07:51:13;;;;;;;16.60;11.50;;;;;;;-2.37;83.87;100584.52;105231;1271;73457;-74
2022/01/11 07:53:40;;;;;;;17.20;11.10;;;;;;;-2.37;83.87;100586.10;105107;1271;61288;-73
2022/01/11 07:56:07;;;;;;;17.30;11.60;;;;;;;-2.35;83.93;100584.36;105168;1270;61365;-73
2022/01/11 07:58:33;;;;;;;22.90;12.50;;;;;;;-2.32;84.02;100586.65;105306;1271;61409;-74
2022/01/11 08:01:00;;;;;;;24.10;14.90;;;;;;;-2.28;84.05;100587.92;105279;1271;61567;-73
2022/01/11 08:03:27;;;;;;;19.00;11.70;;;;;;;-2.23;84.05;100596.34;105306;1271;75125;-75
2022/01/11 08:05:53;;;;;;;18.80;11.50;;;;;;;-2.19;83.80;100594.80;106052;1271;70202;-74
2022/01/11 08:08:20;;;;;;;17.50;10.90;;;;;;;-2.19;83.69;100593.94;105863;1271;73088;-74
2022/01/11 08:10:46;;;;;;;17.40;12.20;;;;;;;-2.18;83.76;100598.31;105760;1271;61151;-74
2022/01/11 08:13:13;;;;;;;17.00;10.50;;;;;;;-2.14;83.81;100599.90;105345;1271;61928;-73
2022/01/11 08:15:40;;;;;;;17.20;11.90;;;;;;;-2.11;83.82;100600.27;105220;1271;75077;-75
2022/01/11 08:18:08;;;;;;;20.30;12.90;;;;;;;-2.07;83.85;100595.63;104505;1271;1003788;-73
2022/01/11 08:20:35;;;;;;;16.30;11.50;;;;;;;-2.02;83.76;100598.11;105257;1271;73100;-74
2022/01/11 08:23:02;;;;;;;16.40;12.30;;;;;;;-1.96;83.75;100604.78;105199;1271;61186;-73
2022/01/11 08:25:29;;;;;;;16.90;11.40;;;;;;;-1.94;83.75;100606.91;105296;1271;61232;-73
2022/01/11 08:27:56;;;;;;;22.50;13.40;;;;;;;-1.90;83.75;100608.32;105265;1271;73479;-74
2022/01/11 08:30:22;;;;;;;14.40;10.60;;;;;;;-1.85;83.61;100608.04;104517;1271;1002990;-72
2022/01/11 08:32:49;;;;;;;19.90;13.70;;;;;;;-1.85;83.57;100604.55;105255;1271;74134;-73
2022/01/11 08:35:16;;;;;;;18.70;11.70;;;;;;;-1.82;83.64;100602.48;105276;1271;61294;-73
2022/01/11 08:37:42;;;;;;;21.10;14.30;;;;;;;-1.79;83.49;100601.80;105224;1271;61295;-73
2022/01/11 08:40:10;;;;;;;16.90;13.10;;;;;;;-1.76;83.63;100606.02;105247;1271;75250;-73
2022/01/11 08:42:37;;;;;;;30.90;14.30;;;;;;;-1.70;83.69;100605.20;105232;1271;70298;-73
2022/01/11 08:45:05;;;;;;;23.10;13.70;;;;;;;-1.67;83.66;100612.55;105253;1271;73280;-75
2022/01/11 08:47:32;;;;;;;19.40;13.10;;;;;;;-1.63;83.55;100601.25;105208;1271;61285;-73
2022/01/11 08:50:02;;;;;;;17.90;11.30;;;;;;;-1.58;83.52;100606.00;105285;1271;61333;-71
2022/01/11 08:52:29;;;;;;;17.30;11.80;;;;;;;-1.57;83.22;100604.80;105328;1271;74623;-73
2022/01/11 08:54:57;;;;;;;19.50;12.80;;;;;;;-1.56;83.42;100609.68;105237;1271;70295;-74
2022/01/11 08:57:23;;;;;;;18.60;11.10;;;;;;;-1.52;83.33;100609.18;105243;1270;73197;-75
2022/01/11 08:59:50;;;;;;;18.00;12.00;;;;;;;-1.49;83.37;100609.39;105226;1271;61288;-73
2022/01/11 09:02:20;;;;;;;18.00;13.30;;;;;;;-1.47;83.32;100608.71;105227;1271;61845;-73
2022/01/11 09:04:48;;;;;;;23.70;15.50;;;;;;;-1.45;83.22;100609.07;105253;1271;75318;-72
2022/01/11 09:07:16;;;;;;;20.40;12.70;;;;;;;-1.44;83.05;100608.21;105287;1271;69420;-73
2022/01/11 09:09:43;;;;;;;23.50;16.00;;;;;;;-1.42;83.15;100617.46;105203;1271;73201;-72
2022/01/11 09:12:12;;;;;;;31.00;20.20;;;;;;;-1.41;83.26;100619.73;104962;1271;61385;-74
2022/01/11 09:14:41;;;;;;;32.30;20.30;;;;;;;-1.41;83.16;100619.55;105213;1271;61932;-73
2022/01/11 09:17:08;;;;;;;31.70;19.90;;;;;;;-1.42;83.27;100620.95;105265;1271;75402;-73
2022/01/11 09:19:34;;;;;;;36.20;21.20;;;;;;;-1.35;83.47;100615.77;105259;1271;70663;-74
2022/01/11 09:22:01;;;;;;;28.40;18.20;;;;;;;-1.28;83.07;100616.88;105253;1270;74509;-75
2022/01/11 09:24:30;;;;;;;27.40;18.40;;;;;;;-1.32;82.94;100611.78;105247;1271;61266;-73
2022/01/11 09:26:59;;;;;;;22.20;15.60;;;;;;;-1.34;82.85;100612.98;105246;1271;61784;-72
2022/01/11 09:29:26;;;;;;;26.90;17.60;;;;;;;-1.37;82.83;100611.39;105186;1271;76216;-73
2022/01/11 09:31:56;;;;;;;30.30;17.70;;;;;;;-1.38;82.92;100608.95;105266;1270;70572;-72
2022/01/11 09:34:24;;;;;;;29.50;17.10;;;;;;;-1.34;83.03;100603.75;105217;1271;74403;-73
2022/01/11 09:36:51;;;;;;;33.70;19.60;;;;;;;-1.28;82.99;100604.31;105238;1271;61390;-73
2022/01/11 09:39:19;;;;;;;33.70;19.40;;;;;;;-1.20;83.01;100601.05;105316;1271;61275;-69
2022/01/11 09:41:45;;;;;;;30.20;20.40;;;;;;;-1.13;83.11;100600.94;105004;1271;75390;-78
2022/01/11 09:44:12;;;;;;;24.50;16.40;;;;;;;-1.04;82.93;100600.81;105270;1271;69413;-73
2022/01/11 09:46:39;;;;;;;23.10;17.40;;;;;;;-1.03;82.38;100597.15;105239;1271;73263;-72
2022/01/11 09:49:06;;;;;;;25.90;17.80;;;;;;;-1.06;82.23;100592.95;105343;1271;61339;-74
2022/01/11 09:51:36;;;;;;;24.30;17.70;;;;;;;-1.07;82.32;100593.30;105309;1271;62239;-74
2022/01/11 09:54:04;;;;;;;30.40;18.20;;;;;;;-1.01;82.65;100590.54;105074;1271;73798;-73
2022/01/11 09:56:37;;;;;;;27.10;17.80;;;;;;;-0.95;82.66;100593.02;105285;1271;69426;-73
2022/01/11 09:59:05;;;;;;;23.90;16.80;;;;;;;-0.95;82.09;100592.66;105203;1271;74201;-75
2022/01/11 10:01:35;;;;;;;25.40;17.90;;;;;;;-1.00;82.05;100590.19;105017;1271;61300;-74
2022/01/11 10:04:11;;;;;;;26.40;17.80;;;;;;;-1.01;82.15;100593.67;105207;1271;61274;-72
2022/01/11 10:06:42;;;;;;;25.80;16.70;;;;;;;-0.97;82.37;100594.39;105242;1270;75245;-72
2022/01/11 10:09:16;;;;;;;20.90;16.00;;;;;;;-0.92;82.23;100601.23;105033;1271;69250;-74
2022/01/11 10:11:48;;;;;;;28.10;16.60;;;;;;;-0.93;81.92;100600.17;105164;1271;74314;-72
2022/01/11 10:14:32;;;;;;;25.30;17.50;;;;;;;-0.94;81.74;100600.52;104974;1271;61285;-73
2022/01/11 10:17:06;;;;;;;24.30;16.50;;;;;;;-0.93;81.92;100601.58;105319;1271;61292;-75
2022/01/11 10:19:35;;;;;;;27.70;18.00;;;;;;;-0.85;81.98;100600.58;105130;1271;75240;-74
2022/01/11 10:22:05;;;;;;;24.60;16.80;;;;;;;-0.76;82.01;100598.88;105248;1271;69204;-76
2022/01/11 10:24:38;;;;;;;24.70;15.60;;;;;;;-0.67;82.01;100595.08;105286;1271;73316;-74
2022/01/11 10:27:11;;;;;;;25.80;16.70;;;;;;;-0.58;81.86;100601.05;105251;1271;61301;-74
2022/01/11 10:29:41;;;;;;;29.00;18.00;;;;;;;-0.48;81.81;100600.73;105241;1270;61277;-74
2022/01/11 10:32:19;;;;;;;16.20;11.90;;;;;;;-0.35;81.70;100596.06;105316;1271;76173;-76
2022/01/11 10:34:49;;;;;;;23.10;12.20;;;;;;;-0.22;81.51;100597.50;105261;1271;68710;-73
2022/01/11 10:37:26;;;;;;;;;;;;;;;-0.13;81.01;100598.58;105070;1271;72525;-73
2022/01/11 10:40:05;;;;;;;18.90;11.30;;;;;;;-0.09;80.92;100601.38;105264;1271;61223;-71
2022/01/11 10:42:38;;;;;;;24.70;16.30;;;;;;;-0.03;80.88;100600.52;105275;1271;60846;-72
2022/01/11 10:45:10;;;;;;;28.50;18.10;;;;;;;0.02;80.64;100597.73;105074;1271;75498;-73
2022/01/11 10:47:40;;;;;;;38.30;24.30;;;;;;;0.13;80.78;100602.46;105249;1271;69207;-73
2022/01/11 10:50:18;;;;;;;28.90;19.50;;;;;;;0.31;80.68;100600.57;105043;1271;73528;-74
2022/01/11 10:52:46;;;;;;;33.00;20.40;;;;;;;0.44;80.52;100598.82;105247;1271;61333;-73
2022/01/11 10:55:20;;;;;;;16.50;11.50;;;;;;;0.52;79.96;100597.23;105254;1271;62738;-74
2022/01/11 10:58:13;;;;;;;19.10;13.60;;;;;;;0.47;79.36;100596.02;105205;1271;76424;-73
2022/01/11 11:00:48;;;;;;;21.10;13.60;;;;;;;0.47;79.35;100593.39;104665;1279;70357;-73
2022/01/11 11:03:21;;;;;;;19.60;12.60;;;;;;;0.51;78.85;100591.47;104668;1279;72206;-73
2022/01/11 11:05:53;;;;;;;17.50;11.80;;;;;;;0.47;78.74;100590.77;104571;1279;61306;-74
2022/01/11 11:08:33;;;;;;;17.80;11.70;;;;;;;0.47;79.00;100593.39;104645;1279;61283;-73